createdAt,value
2022-08-27T00:00:46.482Z,95535.83
2022-08-27T00:03:18.264Z,95532.72
2022-08-27T00:05:47.135Z,95533.38
2022-08-27T00:08:15.876Z,95534.30
2022-08-27T00:10:49.398Z,95530.54
2022-08-27T00:13:19.734Z,95528.86
2022-08-27T00:15:49.185Z,95528.08
2022-08-27T00:18:18.885Z,95531.38
2022-08-27T00:20:50.195Z,95524.11
2022-08-27T00:23:16.945Z,95523.04
2022-08-27T00:25:44.768Z,95519.52
2022-08-27T00:28:11.912Z,95520.86
2022-08-27T00:30:39.422Z,95517.61
2022-08-27T00:33:06.661Z,95519.45
2022-08-27T00:35:33.444Z,95519.83
2022-08-27T00:38:00.276Z,95520.86
2022-08-27T00:40:27.536Z,95522.25
2022-08-27T00:42:54.852Z,95521.04
2022-08-27T00:45:23.624Z,95520.85
2022-08-27T00:47:58.128Z,95516.86
2022-08-27T00:50:48.378Z,95513.17
2022-08-27T00:53:24.348Z,95512.04
2022-08-27T00:56:03.961Z,95511.80
2022-08-27T00:58:40.716Z,95510.16
2022-08-27T01:01:10.693Z,95508.45
2022-08-27T01:03:38.585Z,95507.96
2022-08-27T01:06:10.537Z,95505.33
2022-08-27T01:08:41.850Z,95503.23
2022-08-27T01:11:08.715Z,95506.63
2022-08-27T01:13:54.501Z,95511.04
2022-08-27T01:16:28.736Z,95507.45
2022-08-27T01:18:57.679Z,95510.05
2022-08-27T01:21:33.698Z,95509.79
2022-08-27T01:24:01.171Z,95513.94
2022-08-27T01:26:29.226Z,95512.06
2022-08-27T01:28:56.652Z,95510.16
2022-08-27T01:31:23.705Z,95513.20
2022-08-27T01:34:00.423Z,95512.21
2022-08-27T01:36:27.950Z,95507.58
2022-08-27T01:38:55.287Z,95509.15
2022-08-27T01:41:25.266Z,95507.54
2022-08-27T01:43:52.868Z,95507.35
2022-08-27T01:46:25.750Z,95509.05
2022-08-27T01:48:53.427Z,95508.27
2022-08-27T01:51:20.569Z,95507.88
2022-08-27T01:53:47.324Z,95505.64
2022-08-27T01:56:14.813Z,95508.61
2022-08-27T01:58:44.216Z,95507.69
2022-08-27T02:02:25.983Z,95513.09
2022-08-27T02:04:53.430Z,95512.30
2022-08-27T02:07:20.236Z,95510.48
2022-08-27T02:09:47.231Z,95508.12
2022-08-27T02:12:13.914Z,95504.05
2022-08-27T02:14:40.673Z,95507.15
2022-08-27T02:17:07.488Z,95510.30
2022-08-27T02:19:34.163Z,95514.33
2022-08-27T02:22:02.115Z,95516.70
2022-08-27T02:24:28.828Z,95517.95
2022-08-27T02:26:56.769Z,95524.63
2022-08-27T02:29:25.270Z,95530.47
2022-08-27T02:31:51.843Z,95531.13
2022-08-27T02:34:18.521Z,95531.79
2022-08-27T02:36:46.150Z,95531.00
2022-08-27T02:39:13.414Z,95528.89
2022-08-27T02:41:40.129Z,95530.79
2022-08-27T02:44:10.410Z,95529.93
2022-08-27T02:46:39.434Z,95528.23
2022-08-27T02:49:07.203Z,95525.36
2022-08-27T02:51:34.007Z,95524.94
2022-08-27T02:54:02.093Z,95527.45
2022-08-27T02:56:28.855Z,95530.58
2022-08-27T02:58:56.110Z,95532.62
2022-08-27T03:01:22.973Z,95534.60
2022-08-27T03:03:50.969Z,95542.19
2022-08-27T03:06:21.865Z,95544.77
2022-08-27T03:08:52.829Z,95541.64
2022-08-27T03:11:24.566Z,95543.05
2022-08-27T03:14:15.175Z,95540.54
2022-08-27T03:16:50.187Z,95544.15
2022-08-27T03:19:23.769Z,95545.69
2022-08-27T03:21:54.612Z,95546.92
2022-08-27T03:24:42.548Z,95543.30
2022-08-27T03:27:15.550Z,95542.48
2022-08-27T03:29:42.231Z,95534.52
2022-08-27T03:32:09.118Z,95536.43
2022-08-27T03:34:36.175Z,95537.89
2022-08-27T03:37:02.836Z,95538.88
2022-08-27T03:39:29.440Z,95539.23
2022-08-27T03:41:56.012Z,95539.98
2022-08-27T03:44:23.915Z,95538.69
2022-08-27T03:46:52.837Z,95537.80
2022-08-27T03:49:22.451Z,95537.84
2022-08-27T03:51:52.028Z,95539.59
2022-08-27T03:54:20.243Z,95540.78
2022-08-27T03:56:50.146Z,95538.31
2022-08-27T03:59:17.675Z,95540.45
2022-08-27T04:01:53.960Z,95537.27
2022-08-27T04:04:23.165Z,95541.05
2022-08-27T04:06:58.277Z,95540.85
2022-08-27T04:10:06.508Z,95541.85
2022-08-27T04:13:13.165Z,95544.09
2022-08-27T04:16:20.499Z,95547.69
2022-08-27T04:18:49.277Z,95547.51
2022-08-27T04:21:16.422Z,95544.16
2022-08-27T04:23:43.752Z,95542.64
2022-08-27T04:26:12.386Z,95545.55
2022-08-27T04:28:39.270Z,95547.57
2022-08-27T04:31:12.869Z,95548.86
2022-08-27T04:33:50.604Z,95553.95
2022-08-27T04:36:19.706Z,95552.56
2022-08-27T04:38:47.356Z,95552.45
2022-08-27T04:41:25.762Z,95549.50
2022-08-27T04:43:55.896Z,95549.36
2022-08-27T04:46:34.311Z,95548.15
2022-08-27T04:49:10.043Z,95547.77
2022-08-27T04:51:40.169Z,95550.66
2022-08-27T04:54:07.744Z,95551.94
2022-08-27T04:56:36.164Z,95551.38
2022-08-27T04:59:05.227Z,95550.99
2022-08-27T05:01:32.565Z,95550.89
2022-08-27T05:03:59.353Z,95550.14
2022-08-27T05:06:26.938Z,95554.48
2022-08-27T05:08:54.691Z,95553.05
2022-08-27T05:11:26.515Z,95555.83
2022-08-27T05:13:55.706Z,95556.84
2022-08-27T05:16:25.220Z,95557.14
2022-08-27T05:18:53.904Z,95559.54
2022-08-27T05:21:24.994Z,95562.31
2022-08-27T05:23:53.747Z,95564.64
2022-08-27T05:26:24.860Z,95566.52
2022-08-27T05:28:52.460Z,95564.80
2022-08-27T05:31:23.512Z,95567.63
2022-08-27T05:33:54.984Z,95566.17
2022-08-27T05:36:27.763Z,95569.07
2022-08-27T05:38:58.040Z,95568.47
2022-08-27T05:41:33.757Z,95568.64
2022-08-27T05:44:30.293Z,95571.23
2022-08-27T05:47:02.474Z,95567.54
2022-08-27T05:49:31.185Z,95565.00
2022-08-27T05:51:57.857Z,95567.90
2022-08-27T05:54:24.715Z,95567.52
2022-08-27T05:56:51.320Z,95566.85
2022-08-27T05:59:37.442Z,95566.25
2022-08-27T06:02:06.203Z,95565.45
2022-08-27T06:04:33.128Z,95565.86
2022-08-27T06:07:02.080Z,95563.17
2022-08-27T06:09:29.673Z,95567.38
2022-08-27T06:11:59.418Z,95568.61
2022-08-27T06:14:27.413Z,95572.58
2022-08-27T06:16:55.020Z,95569.72
2022-08-27T06:19:22.189Z,95568.05
2022-08-27T06:22:00.972Z,95567.96
2022-08-27T06:24:36.092Z,95565.98
2022-08-27T06:27:03.206Z,95568.55
2022-08-27T06:29:29.944Z,95568.92
2022-08-27T06:31:56.554Z,95571.25
2022-08-27T06:34:23.303Z,95567.66
2022-08-27T06:36:50.012Z,95574.30
2022-08-27T06:39:16.967Z,95572.65
2022-08-27T06:41:44.436Z,95573.66
2022-08-27T06:44:13.105Z,95574.78
2022-08-27T06:46:40.300Z,95570.45
2022-08-27T06:49:07.944Z,95572.60
2022-08-27T06:51:37.648Z,95573.82
2022-08-27T06:54:11.591Z,95573.39
2022-08-27T06:56:39.752Z,95568.73
2022-08-27T06:59:11.473Z,95568.17
2022-08-27T07:01:44.934Z,95572.89
2022-08-27T07:04:16.912Z,95572.02
2022-08-27T07:06:44.223Z,95576.15
2022-08-27T07:09:11.560Z,95577.20
2022-08-27T07:11:38.442Z,95574.64
2022-08-27T07:14:06.063Z,95579.07
2022-08-27T07:16:32.710Z,95578.79
2022-08-27T07:19:03.849Z,95579.04
2022-08-27T07:21:32.518Z,95576.51
2022-08-27T07:24:03.990Z,95576.84
2022-08-27T07:26:32.932Z,95577.83
2022-08-27T07:29:00.317Z,95578.64
2022-08-27T07:31:27.524Z,95578.23
2022-08-27T07:33:54.551Z,95574.52
2022-08-27T07:36:23.317Z,95572.81
2022-08-27T07:38:56.691Z,95575.39
2022-08-27T07:41:30.617Z,95575.20
2022-08-27T07:44:18.478Z,95573.10
2022-08-27T07:46:48.362Z,95569.70
2022-08-27T07:49:18.070Z,95572.41
2022-08-27T07:51:45.344Z,95569.94
2022-08-27T07:54:12.260Z,95571.27
2022-08-27T07:56:38.975Z,95576.05
2022-08-27T07:59:06.046Z,95576.00
2022-08-27T08:01:32.731Z,95575.23
2022-08-27T08:03:59.804Z,95574.84
2022-08-27T08:06:26.577Z,95578.66
2022-08-27T08:08:53.230Z,95577.23
2022-08-27T08:11:20.154Z,95574.35
2022-08-27T08:13:47.829Z,95574.21
2022-08-27T08:16:15.144Z,95574.86
2022-08-27T08:18:42.694Z,95573.37
2022-08-27T08:21:13.003Z,95571.27
2022-08-27T08:23:41.635Z,95572.73
2022-08-27T08:26:09.802Z,95570.89
2022-08-27T08:28:36.584Z,95565.41
2022-08-27T08:31:04.503Z,95566.48
2022-08-27T08:33:32.284Z,95567.18
2022-08-27T08:36:11.821Z,95568.08
2022-08-27T08:38:45.686Z,95570.13
2022-08-27T08:41:27.582Z,95569.00
2022-08-27T08:44:02.204Z,95569.30
2022-08-27T08:46:52.623Z,95572.58
2022-08-27T08:49:50.515Z,95571.29
2022-08-27T08:52:31.686Z,95571.09
2022-08-27T08:55:24.789Z,95570.15
2022-08-27T08:57:57.522Z,95569.61
2022-08-27T09:00:24.208Z,95567.69
2022-08-27T09:02:54.210Z,95568.98
2022-08-27T09:05:27.231Z,95566.34
2022-08-27T09:08:37.793Z,95563.33
2022-08-27T09:11:26.745Z,95564.09
2022-08-27T09:14:01.105Z,95563.41
2022-08-27T09:16:28.181Z,95563.33
2022-08-27T09:18:55.371Z,95561.35
2022-08-27T09:21:48.796Z,95559.05
2022-08-27T09:24:36.621Z,95557.58
2022-08-27T09:27:04.065Z,95559.16
2022-08-27T09:29:30.725Z,95559.05
2022-08-27T09:32:03.129Z,95554.98
2022-08-27T09:34:36.608Z,95551.71
2022-08-27T09:37:33.902Z,95545.14
2022-08-27T09:40:22.907Z,95546.48
2022-08-27T09:42:53.128Z,95548.19
2022-08-27T09:45:28.179Z,95548.77
2022-08-27T09:48:06.988Z,95548.02
2022-08-27T09:50:47.672Z,95541.67
2022-08-27T09:53:36.758Z,95540.09
2022-08-27T09:56:07.169Z,95540.42
2022-08-27T09:59:00.562Z,95540.68
2022-08-27T10:01:31.246Z,95543.83
2022-08-27T10:04:12.783Z,95544.39
2022-08-27T10:06:50.243Z,95540.83
2022-08-27T10:09:19.876Z,95543.31
2022-08-27T10:12:13.576Z,95542.03
2022-08-27T10:14:44.587Z,95542.62
2022-08-27T10:17:25.347Z,95546.54
2022-08-27T10:20:06.776Z,95545.27
2022-08-27T10:22:46.464Z,95549.15
2022-08-27T10:25:34.221Z,95550.64
2022-08-27T10:28:16.350Z,95550.57
2022-08-27T10:31:11.793Z,95548.19
2022-08-27T10:34:12.300Z,95546.94
2022-08-27T10:37:00.720Z,95544.11
2022-08-27T10:40:20.106Z,95546.46
2022-08-27T10:43:09.393Z,95545.48
2022-08-27T10:45:41.966Z,95546.18
2022-08-27T10:48:40.741Z,95544.77
2022-08-27T10:51:31.871Z,95544.45
2022-08-27T10:54:01.402Z,95541.44
2022-08-27T10:56:45.650Z,95541.50
2022-08-27T10:59:36.534Z,95539.86
2022-08-27T11:02:22.494Z,95539.15
2022-08-27T11:04:54.293Z,95541.66
2022-08-27T11:07:36.613Z,95540.41
2022-08-27T11:10:09.281Z,95539.41
2022-08-27T11:12:43.955Z,95540.41
2022-08-27T11:15:17.360Z,95544.27
2022-08-27T11:18:05.284Z,95539.46
2022-08-27T11:20:53.115Z,95537.02
2022-08-27T11:23:26.876Z,95534.27
2022-08-27T11:25:58.332Z,95535.83
2022-08-27T11:28:38.939Z,95536.90
2022-08-27T11:31:08.267Z,95536.58
2022-08-27T11:33:46.052Z,95539.13
2022-08-27T11:36:18.936Z,95535.77
2022-08-27T11:39:23.806Z,95535.00
2022-08-27T11:42:20.215Z,95531.50
2022-08-27T11:44:48.912Z,95527.50
2022-08-27T11:47:25.024Z,95523.26
2022-08-27T11:49:57.667Z,95523.16
2022-08-27T11:52:29.732Z,95523.68
2022-08-27T11:55:24.395Z,95522.21
2022-08-27T11:58:07.528Z,95524.66
2022-08-27T12:00:38.801Z,95523.08
2022-08-27T12:03:19.031Z,95519.95
2022-08-27T12:05:49.174Z,95513.30
2022-08-27T12:08:21.362Z,95505.80
2022-08-27T12:11:19.597Z,95504.04
2022-08-27T12:14:23.682Z,95504.43
2022-08-27T12:17:04.840Z,95506.23
2022-08-27T12:19:31.331Z,95503.67
2022-08-27T12:22:19.563Z,95502.77
2022-08-27T12:24:55.917Z,95497.60
2022-08-27T12:27:27.635Z,95493.77
2022-08-27T12:30:04.434Z,95496.10
2022-08-27T12:32:32.787Z,95497.64
2022-08-27T12:35:10.672Z,95497.48
2022-08-27T12:37:56.922Z,95495.66
2022-08-27T12:40:26.802Z,95495.82
2022-08-27T12:43:34.913Z,95492.26
2022-08-27T12:46:10.857Z,95495.36
2022-08-27T12:48:40.041Z,95491.08
2022-08-27T12:51:12.247Z,95494.71
2022-08-27T12:53:46.346Z,95491.70
2022-08-27T12:56:51.898Z,95493.48
2022-08-27T12:59:49.301Z,95491.60
2022-08-27T13:02:40.210Z,95493.19
2022-08-27T13:05:10.694Z,95494.63
2022-08-27T13:07:44.145Z,95492.70
2022-08-27T13:10:32.562Z,95494.59
2022-08-27T13:13:09.472Z,95494.37
2022-08-27T13:15:55.995Z,95496.01
2022-08-27T13:18:24.402Z,95501.92
2022-08-27T13:21:17.355Z,95502.82
2022-08-27T13:24:10.642Z,95503.66
2022-08-27T13:26:38.424Z,95502.96
2022-08-27T13:29:06.934Z,95504.67
2022-08-27T13:31:35.110Z,95507.17
2022-08-27T13:34:06.187Z,95507.11
2022-08-27T13:36:49.150Z,95506.69
2022-08-27T13:39:16.592Z,95508.69
2022-08-27T13:41:47.653Z,95509.41
2022-08-27T13:44:25.624Z,95512.00
2022-08-27T13:47:00.368Z,95513.23
2022-08-27T13:49:29.261Z,95513.52
2022-08-27T13:52:21.211Z,95508.12
2022-08-27T13:54:52.078Z,95508.47
2022-08-27T13:57:32.233Z,95510.24
2022-08-27T14:00:24.331Z,95510.91
2022-08-27T14:02:56.012Z,95510.58
2022-08-27T14:05:22.976Z,95507.55
2022-08-27T14:07:52.818Z,95506.64
2022-08-27T14:10:33.579Z,95506.34
2022-08-27T14:13:22.373Z,95501.44
2022-08-27T14:15:55.683Z,95501.63
2022-08-27T14:18:58.783Z,95502.29
2022-08-27T14:21:22.681Z,95502.69
2022-08-27T14:23:49.346Z,95499.48
2022-08-27T14:26:16.721Z,95498.86
2022-08-27T14:28:44.385Z,95500.48
2022-08-27T14:31:12.305Z,95495.48
2022-08-27T14:33:39.309Z,95499.17
2022-08-27T14:36:07.375Z,95500.34
2022-08-27T14:38:37.614Z,95500.37
2022-08-27T14:41:07.598Z,95500.45
2022-08-27T14:43:35.087Z,95501.03
2022-08-27T14:46:03.451Z,95503.87
2022-08-27T14:48:33.204Z,95504.09
2022-08-27T14:51:07.634Z,95501.82
2022-08-27T14:53:34.264Z,95501.88
2022-08-27T14:56:01.272Z,95499.70
2022-08-27T14:58:28.798Z,95496.98
2022-08-27T15:00:57.043Z,95500.76
2022-08-27T15:03:27.700Z,95498.94
2022-08-27T15:05:55.511Z,95499.09
2022-08-27T15:08:27.674Z,95499.69
2022-08-27T15:10:59.420Z,95495.73
2022-08-27T15:13:26.216Z,95495.31
2022-08-27T15:15:52.925Z,95494.52
2022-08-27T15:18:19.664Z,95494.85
2022-08-27T15:20:46.389Z,95492.20
2022-08-27T15:23:15.025Z,95495.75
2022-08-27T15:25:44.789Z,95494.20
2022-08-27T15:28:11.571Z,95491.59
2022-08-27T15:30:38.526Z,95493.08
2022-08-27T15:33:06.247Z,95493.35
2022-08-27T15:35:33.719Z,95494.04
2022-08-27T15:38:00.660Z,95496.91
2022-08-27T15:40:31.754Z,95489.89
2022-08-27T15:43:02.261Z,95491.81
2022-08-27T15:45:30.899Z,95490.91
2022-08-27T15:47:58.804Z,95492.61
2022-08-27T15:50:27.754Z,95491.64
2022-08-27T15:52:59.547Z,95493.95
2022-08-27T15:55:35.506Z,95492.66
2022-08-27T15:58:03.908Z,95493.36
2022-08-27T16:00:35.363Z,95492.95
2022-08-27T16:03:06.866Z,95490.22
2022-08-27T16:05:36.381Z,95489.14
2022-08-27T16:08:03.630Z,95489.70
2022-08-27T16:10:30.826Z,95490.38
2022-08-27T16:12:57.490Z,95486.66
2022-08-27T16:15:24.207Z,95491.05
2022-08-27T16:17:57.300Z,95490.39
2022-08-27T16:20:25.201Z,95490.77
2022-08-27T16:22:53.632Z,95494.48
2022-08-27T16:25:22.785Z,95494.77
2022-08-27T16:27:51.036Z,95496.29
2022-08-27T16:30:18.626Z,95498.42
2022-08-27T16:32:47.849Z,95503.79
2022-08-27T16:35:15.607Z,95506.11
2022-08-27T16:37:43.709Z,95511.33
2022-08-27T16:40:12.493Z,95509.90
2022-08-27T16:42:46.488Z,95514.65
2022-08-27T16:45:15.654Z,95520.11
2022-08-27T16:48:01.172Z,95524.56
2022-08-27T16:50:34.277Z,95518.92
2022-08-27T16:53:13.065Z,95520.95
2022-08-27T16:55:41.991Z,95518.23
2022-08-27T16:58:19.422Z,95520.64
2022-08-27T17:00:53.040Z,95523.55
2022-08-27T17:03:21.865Z,95527.09
2022-08-27T17:05:49.463Z,95524.92
2022-08-27T17:08:18.278Z,95528.23
2022-08-27T17:10:48.329Z,95528.07
2022-08-27T17:13:18.542Z,95529.95
2022-08-27T17:15:52.986Z,95533.36
2022-08-27T17:18:21.965Z,95538.65
2022-08-27T17:20:50.514Z,95544.61
2022-08-27T17:23:38.341Z,95546.36
2022-08-27T17:26:07.409Z,95550.50
2022-08-27T17:28:34.853Z,95555.08
2022-08-27T17:31:01.892Z,95562.06
2022-08-27T17:33:34.039Z,95561.86
2022-08-27T17:36:00.764Z,95563.20
2022-08-27T17:38:29.329Z,95564.52
2022-08-27T17:40:56.412Z,95565.01
2022-08-27T17:43:23.374Z,95566.02
2022-08-27T17:45:50.103Z,95567.50
2022-08-27T17:48:19.125Z,95566.43
2022-08-27T17:50:46.975Z,95568.41
2022-08-27T17:53:13.686Z,95574.84
2022-08-27T17:55:40.347Z,95573.59
2022-08-27T17:58:07.114Z,95573.40
2022-08-27T18:00:33.901Z,95574.20
2022-08-27T18:03:01.133Z,95577.02
2022-08-27T18:05:27.883Z,95579.52
2022-08-27T18:07:56.459Z,95580.66
2022-08-27T18:10:25.036Z,95582.56
2022-08-27T18:12:54.762Z,95582.58
2022-08-27T18:15:25.959Z,95588.14
2022-08-27T18:17:53.762Z,95589.08
2022-08-27T18:20:23.600Z,95593.23
2022-08-27T18:22:52.188Z,95597.60
2022-08-27T18:25:22.287Z,95597.75
2022-08-27T18:27:51.196Z,95596.40
2022-08-27T18:30:18.539Z,95603.52
2022-08-27T18:32:45.493Z,95605.89
2022-08-27T18:35:20.113Z,95608.60
2022-08-27T18:37:47.218Z,95609.06
2022-08-27T18:40:15.863Z,95610.17
2022-08-27T18:42:42.972Z,95608.66
2022-08-27T18:45:14.106Z,95609.05
2022-08-27T18:47:41.793Z,95608.09
2022-08-27T18:50:17.434Z,95608.39
2022-08-27T18:52:47.854Z,95610.09
2022-08-27T18:55:18.938Z,95610.77
2022-08-27T18:57:45.851Z,95611.73
2022-08-27T19:00:14.445Z,95610.30
2022-08-27T19:02:42.530Z,95611.73
2022-08-27T19:05:10.881Z,95612.17
2022-08-27T19:07:37.902Z,95615.16
2022-08-27T19:10:06.455Z,95619.04
2022-08-27T19:12:33.132Z,95618.16
2022-08-27T19:14:59.913Z,95620.89
2022-08-27T19:17:32.313Z,95622.69
2022-08-27T19:20:00.514Z,95629.27
2022-08-27T19:22:30.045Z,95632.69
2022-08-27T19:24:59.092Z,95635.54
2022-08-27T19:27:28.547Z,95637.85
2022-08-27T19:29:55.488Z,95637.42
2022-08-27T19:32:22.120Z,95640.06
2022-08-27T19:34:48.763Z,95642.41
2022-08-27T19:37:22.861Z,95648.67
2022-08-27T19:39:50.286Z,95648.98
2022-08-27T19:42:17.607Z,95652.89
2022-08-27T19:44:44.906Z,95652.91
2022-08-27T19:47:14.571Z,95656.11
2022-08-27T19:49:44.371Z,95662.45
2022-08-27T19:52:12.083Z,95667.52
2022-08-27T19:54:56.916Z,95666.08
2022-08-27T19:57:25.845Z,95670.92
2022-08-27T19:59:54.256Z,95670.44
2022-08-27T20:02:21.538Z,95669.09
2022-08-27T20:05:14.240Z,95668.21
2022-08-27T20:07:35.074Z,95667.79
2022-08-27T20:10:08.414Z,95667.45
2022-08-27T20:12:36.681Z,95666.80
2022-08-27T20:15:05.608Z,95668.36
2022-08-27T20:17:32.928Z,95669.02
2022-08-27T20:20:00.362Z,95667.35
2022-08-27T20:22:27.713Z,95667.98
2022-08-27T20:25:16.728Z,95667.58
2022-08-27T20:27:44.786Z,95668.48
2022-08-27T20:30:13.991Z,95666.11
2022-08-27T20:32:41.114Z,95667.00
2022-08-27T20:35:09.541Z,95665.16
2022-08-27T20:37:41.778Z,95667.90
2022-08-27T20:40:14.294Z,95664.34
2022-08-27T20:42:41.035Z,95660.55
2022-08-27T20:45:11.926Z,95664.15
2022-08-27T20:47:41.360Z,95664.66
2022-08-27T20:50:08.585Z,95664.67
2022-08-27T20:52:35.920Z,95663.81
2022-08-27T20:55:07.875Z,95664.02
2022-08-27T20:57:36.397Z,95663.51
2022-08-27T21:00:20.645Z,95662.11
2022-08-27T21:02:47.407Z,95662.66
2022-08-27T21:05:16.347Z,95659.30
2022-08-27T21:07:45.389Z,95659.42
2022-08-27T21:10:12.086Z,95658.59
2022-08-27T21:12:38.772Z,95658.05
2022-08-27T21:15:07.394Z,95654.16
2022-08-27T21:17:34.654Z,95652.85
2022-08-27T21:20:05.165Z,95650.80
2022-08-27T21:22:31.896Z,95652.90
2022-08-27T21:24:58.712Z,95654.14
2022-08-27T21:27:25.546Z,95651.84
2022-08-27T21:29:52.467Z,95648.69
2022-08-27T21:32:19.692Z,95645.64
2022-08-27T21:34:46.393Z,95645.98
2022-08-27T21:37:14.321Z,95644.20
2022-08-27T21:39:42.785Z,95648.80
2022-08-27T21:42:11.992Z,95649.10
2022-08-27T21:44:38.961Z,95651.21
2022-08-27T21:47:06.503Z,95650.09
2022-08-27T21:49:33.902Z,95649.32
2022-08-27T21:52:06.045Z,95647.59
2022-08-27T21:54:35.981Z,95647.66
2022-08-27T21:57:05.207Z,95644.19
2022-08-27T21:59:38.017Z,95645.25
2022-08-27T22:02:18.151Z,95645.55
2022-08-27T22:04:53.158Z,95647.38
2022-08-27T22:07:19.971Z,95650.16
2022-08-27T22:09:46.976Z,95650.40
2022-08-27T22:12:13.875Z,95649.59
2022-08-27T22:14:40.607Z,95645.22
2022-08-27T22:17:07.462Z,95644.90
2022-08-27T22:19:34.214Z,95644.52
2022-08-27T22:22:00.846Z,95645.73
2022-08-27T22:24:27.553Z,95644.42
2022-08-27T22:26:54.218Z,95645.21
2022-08-27T22:29:20.886Z,95645.48
2022-08-27T22:31:47.776Z,95644.90
2022-08-27T22:34:16.204Z,95645.38
2022-08-27T22:36:42.989Z,95648.41
2022-08-27T22:39:09.721Z,95647.80
2022-08-27T22:41:36.469Z,95647.28
2022-08-27T22:44:04.739Z,95645.73
2022-08-27T22:46:31.488Z,95643.66
2022-08-27T22:48:58.297Z,95643.55
2022-08-27T22:51:25.094Z,95643.45
2022-08-27T22:53:52.054Z,95644.63
2022-08-27T22:56:18.837Z,95647.81
2022-08-27T22:58:45.912Z,95646.88
2022-08-27T23:01:18.725Z,95647.93
2022-08-27T23:03:45.485Z,95644.44
2022-08-27T23:06:12.309Z,95643.27
2022-08-27T23:08:39.970Z,95638.33
2022-08-27T23:11:06.685Z,95644.80
2022-08-27T23:13:33.761Z,95646.30
2022-08-27T23:16:02.503Z,95652.23
2022-08-27T23:18:29.166Z,95648.91
2022-08-27T23:20:55.881Z,95650.56
2022-08-27T23:23:22.641Z,95648.73
2022-08-27T23:26:11.744Z,95652.96
2022-08-27T23:28:38.445Z,95652.98
2022-08-27T23:31:05.223Z,95651.86
2022-08-27T23:33:32.004Z,95653.29
2022-08-27T23:35:58.685Z,95659.17
2022-08-27T23:38:25.336Z,95658.10
2022-08-27T23:40:52.775Z,95655.39
2022-08-27T23:43:20.664Z,95654.83
2022-08-27T23:45:48.121Z,95654.61
2022-08-27T23:48:15.094Z,95649.17
2022-08-27T23:50:42.021Z,95652.93
2022-08-27T23:53:09.624Z,95654.30
2022-08-27T23:55:37.904Z,95658.19
2022-08-27T23:58:08.436Z,95657.48
